Newark, Illinois
Current Conditions -  °F | °C
As of 2:35 AM on Tuesday 21 Oct 2014 (Local Time) from KC09 Reporting Station
Clear Clear  
Wind Chill: 47°   Ceiling: Unl
Heat Index: 47°   Visibility: 10mi
Dew Point: 43°   Wind: 3mph
Humidity: 85%   Direction: 350°N
Pressure: 30.02"   Gusts: NA
Location:  41.54°N, 88.58°W
Report Text: KC09 210735Z AUTO 35003KT 10SM CLR 08/06 A3002 RMK AO2 T00830059
Loading
Personal Weather Stations






























Interactive Weather Map
Tropical Storm Tracking
New forecast layout! Learn more

10-Day Weather Forecast

Advertisements
Track Severe Weather on mobile